Time;durP1;ratioP1;P1;durP2;ratioP2;P2;SDS_P1;SDS_P2;PMS_P1;PMS_P2;Temp;Humidity;BMP_temperature;BMP_pressure;BME280_temperature;BME280_humidity;BME280_pressure;Samples;Min_cycle;Max_cycle;Signal;HPM_P1;HPM_P2
2022/06/14 00:01:10;;;;;;;4.22;1.70;;;;;;;9.87;100.00;101536.47;5053028;28;20428;-88
2022/06/14 00:03:40;;;;;;;4.50;1.42;;;;;;;9.88;100.00;101543.56;5070168;28;20428;-88
2022/06/14 00:06:17;;;;;;;5.85;1.45;;;;;;;9.85;100.00;101547.59;5071396;28;20422;-82
2022/06/14 00:08:47;;;;;;;5.15;1.50;;;;;;;9.80;100.00;101544.00;5062835;28;20426;-89
2022/06/14 00:11:23;;;;;;;5.03;1.37;;;;;;;9.55;100.00;101517.34;5053966;28;20425;-86
2022/06/14 00:13:58;;;;;;;4.55;1.42;;;;;;;9.44;100.00;101506.31;5051221;28;20925;-85
2022/06/14 00:16:33;;;;;;;5.13;1.50;;;;;;;9.72;100.00;101544.44;5051152;28;20421;-89
2022/06/14 00:19:04;;;;;;;5.63;1.50;;;;;;;9.64;100.00;101551.13;5060404;28;20423;-88
2022/06/14 00:21:33;;;;;;;3.45;1.33;;;;;;;9.56;100.00;101549.69;5039466;28;20404;-84
2022/06/14 00:24:08;;;;;;;5.37;1.30;;;;;;;9.60;100.00;101550.00;5050001;28;20432;-87
2022/06/14 00:26:36;;;;;;;4.60;1.53;;;;;;;9.34;100.00;101534.19;5050844;28;20873;-87
2022/06/14 00:29:09;;;;;;;4.07;1.27;;;;;;;9.38;100.00;101542.66;5052096;28;20413;-87
2022/06/14 00:31:42;;;;;;;4.53;1.40;;;;;;;9.45;100.00;101553.34;5047795;28;20417;-88
2022/06/14 00:34:16;;;;;;;4.53;1.48;;;;;;;9.41;100.00;101554.94;5050616;28;20444;-90
2022/06/14 00:36:55;;;;;;;4.60;1.50;;;;;;;9.24;100.00;101527.78;5051351;28;20429;-88
2022/06/14 00:39:30;;;;;;;4.63;1.35;;;;;;;9.39;100.00;101552.47;5050573;28;20421;-81
2022/06/14 00:42:03;;;;;;;4.40;1.50;;;;;;;9.43;100.00;101550.88;5052336;28;20757;-89
2022/06/14 00:44:36;;;;;;;5.03;1.50;;;;;;;9.53;100.00;101561.06;5055727;28;20872;-88
2022/06/14 00:47:08;;;;;;;6.90;1.83;;;;;;;9.32;100.00;101554.50;5055869;28;20413;-85
2022/06/14 00:49:49;;;;;;;4.47;1.35;;;;;;;9.33;100.00;101561.59;5047577;28;20453;-87
2022/06/14 00:52:26;;;;;;;5.32;1.48;;;;;;;9.28;100.00;101562.34;5036181;28;20413;-86
2022/06/14 00:55:05;;;;;;;4.05;1.30;;;;;;;8.98;100.00;101530.13;5052092;28;20413;-86
2022/06/14 00:57:43;;;;;;;4.63;1.35;;;;;;;9.19;100.00;101561.13;5050546;28;21158;-85
2022/06/14 01:00:19;;;;;;;7.15;1.55;;;;;;;9.13;100.00;101570.28;5059096;28;20448;-86
2022/06/14 01:02:55;;;;;;;7.25;1.55;;;;;;;9.18;100.00;101562.19;5032093;28;20423;-85
2022/06/14 01:06:05;;;;;;;6.88;1.42;;;;;;;9.18;100.00;101560.31;5048480;28;20419;-87
2022/06/14 01:08:21;;;;;;;5.93;1.50;;;;;;;9.05;100.00;101555.22;5056292;28;20446;-85
2022/06/14 01:10:51;;;;;;;6.30;1.50;;;;;;;8.99;100.00;101554.31;5055567;28;20930;-86
2022/06/14 01:13:25;;;;;;;6.05;1.50;;;;;;;9.08;100.00;101546.56;5050811;28;20425;-87
2022/06/14 01:15:58;;;;;;;6.93;1.70;;;;;;;8.99;100.00;101537.19;5048868;28;20898;-85
2022/06/14 01:18:31;;;;;;;4.72;1.60;;;;;;;9.13;100.00;101546.66;5049273;28;20421;-86
2022/06/14 01:21:05;;;;;;;5.22;1.60;;;;;;;8.94;100.00;101540.66;5050911;28;20500;-85
2022/06/14 01:23:34;;;;;;;4.27;1.57;;;;;;;8.92;100.00;101537.38;5049871;28;20421;-85
2022/06/14 01:26:09;;;;;;;6.32;1.80;;;;;;;8.94;100.00;101539.84;5050154;28;20413;-86
2022/06/14 01:28:41;;;;;;;4.55;1.50;;;;;;;8.82;100.00;101537.19;5083547;28;20420;-84
2022/06/14 01:31:16;;;;;;;3.47;1.50;;;;;;;8.99;100.00;101551.59;5083429;28;20424;-85
2022/06/14 01:33:54;;;;;;;5.60;1.70;;;;;;;9.10;100.00;101544.44;5051472;28;20430;-86
2022/06/14 01:36:32;;;;;;;4.20;1.40;;;;;;;9.17;100.00;101531.50;5049974;28;20944;-86
2022/06/14 01:39:10;;;;;;;4.03;1.52;;;;;;;9.21;100.00;101537.28;5050828;28;20418;-85
2022/06/14 01:42:00;;;;;;;4.55;1.52;;;;;;;9.36;100.00;101542.06;5043244;28;20495;-84
2022/06/14 01:44:39;;;;;;;5.25;1.58;;;;;;;9.38;100.00;101541.81;5050269;28;20424;-85
2022/06/14 01:47:19;;;;;;;7.07;1.60;;;;;;;9.49;100.00;101539.00;5051411;28;20774;-85
2022/06/14 01:53:07;;;;;;;6.55;1.70;;;;;;;9.57;100.00;101539.63;5050124;28;20889;-86
2022/06/14 01:55:47;;;;;;;4.90;1.50;;;;;;;9.51;100.00;101544.19;5049865;28;20425;-86
2022/06/14 01:58:27;;;;;;;6.80;1.60;;;;;;;9.61;100.00;101548.94;5049768;28;20406;-85
2022/06/14 02:01:03;;;;;;;4.60;1.40;;;;;;;9.58;100.00;101549.44;5050808;28;20432;-86
2022/06/14 02:06:35;;;;;;;6.05;1.73;;;;;;;9.59;100.00;101545.66;5048493;28;21907;-85
2022/06/14 02:09:14;;;;;;;5.80;1.55;;;;;;;9.64;100.00;101543.81;5049405;28;21112;-91
2022/06/14 02:11:49;;;;;;;4.90;1.40;;;;;;;9.41;100.00;101489.72;5046435;28;20427;-86
2022/06/14 02:14:27;;;;;;;5.80;1.90;;;;;;;9.18;100.00;101483.44;5030167;28;20415;-84
2022/06/14 02:17:06;;;;;;;5.95;1.83;;;;;;;9.53;100.00;101539.34;5033105;28;20423;-86
2022/06/14 02:19:38;;;;;;;4.28;1.60;;;;;;;9.57;100.00;101543.19;5069365;28;20430;-88
2022/06/14 02:22:10;;;;;;;6.82;1.80;;;;;;;9.33;100.00;101502.66;5051603;28;20778;-88
2022/06/14 02:24:49;;;;;;;5.63;1.65;;;;;;;9.59;100.00;101541.03;5050876;28;20436;-87
2022/06/14 02:27:30;;;;;;;5.18;1.70;;;;;;;9.61;100.00;101543.50;5049193;28;20421;-88
2022/06/14 02:30:08;;;;;;;6.20;1.93;;;;;;;9.51;100.00;101539.59;5049543;28;20474;-87
2022/06/14 02:32:45;;;;;;;4.70;1.70;;;;;;;9.63;100.00;101542.16;5042270;28;20423;-87
2022/06/14 02:35:19;;;;;;;7.40;1.70;;;;;;;9.52;100.00;101540.41;5030425;28;20427;-87
2022/06/14 02:37:54;;;;;;;3.30;1.70;;;;;;;9.43;100.00;101506.56;5030779;28;20442;-87
2022/06/14 02:40:33;;;;;;;5.72;1.88;;;;;;;9.64;100.00;101554.69;5030951;28;20419;-87
2022/06/14 02:43:17;;;;;;;7.78;1.92;;;;;;;9.70;100.00;101548.22;5029618;28;20788;-87
2022/06/14 02:45:54;;;;;;;5.65;2.00;;;;;;;9.59;100.00;101537.50;5029579;28;21034;-86
2022/06/14 02:48:34;;;;;;;5.53;1.73;;;;;;;9.65;100.00;101553.63;5028984;28;21202;-86
2022/06/14 02:51:13;;;;;;;6.70;1.70;;;;;;;9.76;100.00;101549.13;5032970;28;20419;-87
2022/06/14 02:53:53;;;;;;;5.70;1.63;;;;;;;9.63;100.00;101550.31;5081819;28;20952;-87
2022/06/14 02:56:26;;;;;;;6.65;1.80;;;;;;;9.71;100.00;101554.50;5049131;28;20414;-85
2022/06/14 02:59:01;;;;;;;7.10;1.70;;;;;;;9.78;100.00;101555.13;5049916;28;20401;-85
2022/06/14 03:01:40;;;;;;;6.72;1.90;;;;;;;9.67;100.00;101540.59;5049131;28;20426;-85
2022/06/14 03:04:17;;;;;;;5.60;1.80;;;;;;;9.70;100.00;101550.13;5050533;28;20417;-86
2022/06/14 03:06:58;;;;;;;6.47;1.80;;;;;;;9.82;100.00;101559.00;5048747;28;20789;-85
2022/06/14 03:09:33;;;;;;;6.78;1.83;;;;;;;9.70;100.00;101550.94;5041088;28;20426;-88
2022/06/14 03:12:15;;;;;;;6.03;1.70;;;;;;;9.68;100.00;101546.84;5049626;28;20417;-86
2022/06/14 03:15:01;;;;;;;6.13;1.80;;;;;;;9.76;100.00;101554.56;5050115;28;20470;-86
2022/06/14 03:17:47;;;;;;;6.00;1.50;;;;;;;9.70;100.00;101533.84;5048645;28;20417;-86
2022/06/14 03:20:26;;;;;;;5.15;1.80;;;;;;;9.82;100.00;101556.28;5050406;28;20418;-88
2022/06/14 03:23:08;;;;;;;9.68;2.00;;;;;;;9.84;100.00;101562.25;5048458;28;20422;-85
2022/06/14 03:25:46;;;;;;;5.30;1.73;;;;;;;9.68;100.00;101544.13;5048578;28;20503;-84
2022/06/14 03:28:18;;;;;;;5.70;1.60;;;;;;;9.88;100.00;101568.03;5048712;28;20932;-85
2022/06/14 03:31:01;;;;;;;8.57;1.93;;;;;;;9.77;100.00;101569.78;5048323;28;20414;-86
2022/06/14 03:33:39;;;;;;;10.93;2.13;;;;;;;9.73;100.00;101554.25;5047752;28;20413;-86
2022/06/14 03:36:10;;;;;;;6.10;1.77;;;;;;;9.83;100.00;101566.09;5066479;28;20431;-86
2022/06/14 03:38:43;;;;;;;5.43;1.85;;;;;;;9.87;100.00;101567.22;5069689;28;20419;-91
2022/06/14 03:41:19;;;;;;;7.43;2.10;;;;;;;9.84;100.00;101569.63;5072891;28;20422;-85
2022/06/14 03:43:56;;;;;;;6.18;1.90;;;;;;;9.80;100.00;101566.56;5073795;28;20408;-86
2022/06/14 03:46:33;;;;;;;3.45;1.70;;;;;;;9.92;100.00;101565.63;5072927;28;20927;-87
2022/06/14 03:49:06;;;;;;;5.07;1.80;;;;;;;9.96;100.00;101559.44;5065444;28;20426;-87
2022/06/14 03:51:52;;;;;;;5.45;1.60;;;;;;;10.03;100.00;101561.97;5061351;28;20401;-87
2022/06/14 03:54:44;;;;;;;4.72;1.85;;;;;;;9.96;100.00;101555.91;5052466;28;20417;-90
2022/06/14 03:57:26;;;;;;;5.50;1.70;;;;;;;10.08;100.00;101570.19;5051463;28;20751;-87
2022/06/14 04:00:06;;;;;;;5.32;1.58;;;;;;;10.02;100.00;101569.28;5051548;28;20428;-87
2022/06/14 04:03:04;;;;;;;4.68;1.77;;;;;;;10.04;100.00;101566.31;5047316;28;20902;-85
2022/06/14 04:05:48;;;;;;;6.00;1.85;;;;;;;10.16;100.00;101568.91;5051257;28;20424;-86
2022/06/14 04:08:35;;;;;;;4.28;1.60;;;;;;;10.19;100.00;101568.38;5051677;28;20413;-86
2022/06/14 04:11:16;;;;;;;7.07;1.90;;;;;;;10.15;100.00;101564.53;5052733;28;20412;-87
2022/06/14 04:13:56;;;;;;;5.10;1.60;;;;;;;10.18;100.00;101569.47;5050991;28;20430;-86
2022/06/14 04:16:42;;;;;;;6.47;1.95;;;;;;;10.11;100.00;101557.94;5056682;28;20509;-85
2022/06/14 04:19:30;;;;;;;6.80;1.70;;;;;;;10.09;100.00;101536.44;5072728;28;20423;-87
2022/06/14 04:22:09;;;;;;;5.07;1.53;;;;;;;9.98;100.00;101530.06;5033190;28;20423;-87
2022/06/14 04:24:42;;;;;;;7.15;1.98;;;;;;;10.14;100.00;101552.84;5031842;28;20995;-89
2022/06/14 04:27:21;;;;;;;5.00;1.83;;;;;;;10.20;100.00;101550.97;5031050;28;20934;-86
2022/06/14 04:30:01;;;;;;;4.30;1.52;;;;;;;10.35;100.00;101558.53;5032567;28;20446;-86
2022/06/14 04:32:41;;;;;;;5.00;1.95;;;;;;;10.30;100.00;101556.53;5031340;28;20414;-88
2022/06/14 04:35:20;;;;;;;6.93;1.80;;;;;;;10.31;100.00;101557.34;5069884;28;20419;-86
2022/06/14 04:37:59;;;;;;;5.45;1.83;;;;;;;10.41;100.00;101559.38;5072555;28;20416;-86
2022/06/14 04:40:37;;;;;;;7.93;1.90;;;;;;;10.40;100.00;101553.13;5070822;28;20416;-87
2022/06/14 04:43:10;;;;;;;4.80;1.60;;;;;;;10.37;100.00;101548.19;5072604;28;20400;-86
2022/06/14 04:45:45;;;;;;;9.03;2.20;;;;;;;10.39;100.00;101559.66;5071103;28;20416;-90
2022/06/14 04:48:24;;;;;;;4.90;1.80;;;;;;;10.41;100.00;101562.13;5072090;28;20423;-85
2022/06/14 04:51:02;;;;;;;5.75;1.67;;;;;;;10.45;100.00;101561.31;5071824;28;20411;-85
2022/06/14 04:53:37;;;;;;;4.30;1.80;;;;;;;10.55;100.00;101568.81;5071276;28;20422;-87
2022/06/14 04:56:18;;;;;;;6.60;1.95;;;;;;;10.68;100.00;101557.47;5072205;28;20419;-84
2022/06/14 04:58:56;;;;;;;5.80;1.70;;;;;;;10.76;100.00;101563.50;5070208;28;20427;-85
2022/06/14 05:01:35;;;;;;;4.93;1.73;;;;;;;10.81;100.00;101547.22;5070315;28;20423;-86
2022/06/14 05:04:16;;;;;;;5.15;1.73;;;;;;;10.62;100.00;101554.94;5070690;28;20450;-89
2022/06/14 05:06:52;;;;;;;5.77;1.60;;;;;;;10.82;100.00;101551.59;5070312;28;20412;-86
2022/06/14 05:09:30;;;;;;;7.47;1.85;;;;;;;10.92;100.00;101554.38;5069928;28;20423;-85
2022/06/14 05:12:12;;;;;;;7.88;1.77;;;;;;;10.84;100.00;101552.97;5045986;28;20427;-86
2022/06/14 05:14:52;;;;;;;5.60;1.60;;;;;;;10.96;100.00;101560.16;5031524;28;20427;-83
2022/06/14 05:17:26;;;;;;;4.82;1.70;;;;;;;10.83;100.00;101551.34;5047077;28;20423;-85
2022/06/14 05:20:00;;;;;;;7.05;1.83;;;;;;;11.00;100.00;101577.59;5046450;28;20411;-85
2022/06/14 05:22:39;;;;;;;6.00;1.75;;;;;;;11.06;100.00;101554.75;5031213;28;20954;-86
2022/06/14 05:25:15;;;;;;;4.60;1.40;;;;;;;11.09;100.00;101559.69;5052531;28;20426;-82
2022/06/14 05:27:52;;;;;;;5.73;1.47;;;;;;;11.19;100.00;101578.84;5054835;28;20425;-84
2022/06/14 05:30:38;;;;;;;5.28;1.75;;;;;;;11.53;100.00;101581.25;5047627;28;20429;-87
2022/06/14 05:33:14;;;;;;;5.03;1.52;;;;;;;12.29;100.00;101573.66;5053313;28;22876;-86
2022/06/14 05:35:55;;;;;;;5.55;1.55;;;;;;;12.18;100.00;101571.97;5038958;28;20452;-86
2022/06/14 05:38:38;;;;;;;5.63;1.50;;;;;;;12.16;100.00;101569.50;5050462;28;20421;-86
2022/06/14 05:41:16;;;;;;;5.80;1.60;;;;;;;12.28;100.00;101584.81;5049610;28;20421;-84
2022/06/14 05:43:52;;;;;;;6.53;1.80;;;;;;;12.13;100.00;101567.31;5069206;28;20400;-85
2022/06/14 05:46:25;;;;;;;6.63;1.60;;;;;;;12.68;100.00;101580.53;5066932;28;20425;-84
2022/06/14 05:49:00;;;;;;;4.85;1.50;;;;;;;13.34;100.00;101570.66;5048087;28;20769;-86
2022/06/14 05:51:40;;;;;;;8.70;1.75;;;;;;;13.55;100.00;101575.00;5050166;28;20957;-90
2022/06/14 05:54:21;;;;;;;7.30;1.80;;;;;;;13.62;100.00;101577.47;5050179;28;20422;-86
2022/06/14 05:56:55;;;;;;;5.07;1.40;;;;;;;13.76;100.00;101569.47;5050929;28;20405;-86
2022/06/14 05:59:35;;;;;;;4.37;1.60;;;;;;;14.60;100.00;101569.53;5050686;28;20908;-86
2022/06/14 06:02:10;;;;;;;6.93;1.40;;;;;;;14.17;100.00;101568.44;5048879;28;20425;-86
2022/06/14 06:04:49;;;;;;;7.32;1.70;;;;;;;14.00;100.00;101564.16;5050341;28;20488;-84
2022/06/14 06:07:22;;;;;;;4.43;1.67;;;;;;;14.46;100.00;101571.31;5048920;28;20425;-86
2022/06/14 06:10:04;;;;;;;4.45;1.30;;;;;;;14.26;100.00;101573.03;5056773;28;20411;-87
2022/06/14 06:12:42;;;;;;;5.20;1.47;;;;;;;14.12;100.00;101578.31;5067007;28;20764;-87
2022/06/14 06:15:16;;;;;;;3.83;1.15;;;;;;;14.75;100.00;101568.66;5057066;28;20418;-84
2022/06/14 06:17:55;;;;;;;7.40;1.50;;;;;;;15.37;100.00;101564.50;5045456;28;20422;-84
2022/06/14 06:20:35;;;;;;;6.20;1.27;;;;;;;15.25;100.00;101557.50;5049529;28;20421;-84
2022/06/14 06:23:12;;;;;;;5.63;1.60;;;;;;;15.05;100.00;101564.03;5086165;28;20778;-85
2022/06/14 06:25:50;;;;;;;4.47;1.30;;;;;;;14.83;100.00;101571.88;5043838;28;20428;-85
2022/06/14 06:28:27;;;;;;;6.90;1.55;;;;;;;14.45;100.00;101570.47;5043607;28;21352;-83
2022/06/14 06:31:05;;;;;;;5.78;1.60;;;;;;;13.86;100.00;101572.16;5053281;28;20420;-85
2022/06/14 06:33:43;;;;;;;5.50;1.40;;;;;;;13.48;100.00;101569.03;5046318;28;20424;-86
2022/06/14 06:36:31;;;;;;;5.82;1.50;;;;;;;13.59;100.00;101581.56;5048119;28;20428;-87
2022/06/14 06:39:11;;;;;;;6.28;1.80;;;;;;;13.35;100.00;101580.50;5048334;28;20429;-86
2022/06/14 06:41:54;;;;;;;5.60;1.70;;;;;;;13.31;100.00;101582.16;5047708;28;20421;-89
2022/06/14 06:44:34;;;;;;;6.55;1.65;;;;;;;13.48;100.00;101590.06;5042692;28;20425;-88
2022/06/14 06:47:12;;;;;;;6.20;1.60;;;;;;;13.66;100.00;101589.47;5046637;28;20432;-79
2022/06/14 06:49:56;;;;;;;4.17;1.30;;;;;;;13.72;100.00;101577.41;5045754;28;20432;-83
2022/06/14 06:52:40;;;;;;;6.55;1.38;;;;;;;13.69;100.00;101599.03;5044570;28;20444;-82
2022/06/14 06:55:19;;;;;;;7.28;1.70;;;;;;;13.51;100.00;101581.31;5050145;28;20424;-82
2022/06/14 06:57:56;;;;;;;5.82;1.45;;;;;;;13.72;100.00;101588.34;5045511;28;20435;-84
2022/06/14 07:00:26;;;;;;;5.85;1.33;;;;;;;13.84;100.00;101595.44;5048453;28;20425;-85
2022/06/14 07:03:05;;;;;;;8.10;1.33;;;;;;;13.53;100.00;101590.06;5046606;28;20429;-86
2022/06/14 07:05:33;;;;;;;6.65;1.20;;;;;;;13.51;100.00;101597.72;5041489;28;20056;-85
2022/06/14 07:08:04;;;;;;;9.63;1.38;;;;;;;13.71;100.00;101594.94;5050301;28;20052;-85
2022/06/14 07:10:42;;;;;;;4.90;1.20;;;;;;;14.32;100.00;101587.56;5049666;28;20048;-86
2022/06/14 07:13:18;;;;;;;;;;;;;;;14.54;100.00;101595.34;5044344;28;20064;-88
2022/06/14 07:15:52;;;;;;;3.25;1.27;;;;;;;14.67;100.00;101587.63;5050901;28;20368;-84
2022/06/14 07:18:25;;;;;;;3.28;1.15;;;;;;;14.36;100.00;101596.00;5048931;28;20059;-85
2022/06/14 07:21:03;;;;;;;2.90;0.90;;;;;;;13.86;100.00;101590.50;5074785;28;20051;-85
2022/06/14 07:23:44;;;;;;;2.95;1.00;;;;;;;13.26;100.00;101578.31;5048900;28;20641;-81
2022/06/14 07:26:23;;;;;;;3.55;1.05;;;;;;;13.37;100.00;101609.22;5049753;28;20044;-83
2022/06/14 07:28:59;;;;;;;3.45;1.17;;;;;;;13.28;100.00;101591.72;5052422;28;20528;-82
2022/06/14 07:31:35;;;;;;;3.20;0.93;;;;;;;13.41;100.00;101606.78;5052951;28;20067;-82
2022/06/14 07:34:10;;;;;;;4.10;0.98;;;;;;;13.90;100.00;101597.06;5044270;28;20546;-84
2022/06/14 07:36:57;;;;;;;6.20;1.13;;;;;;;13.89;100.00;101606.34;5048558;28;20462;-82
2022/06/14 07:39:35;;;;;;;1.88;0.82;;;;;;;14.04;100.00;101608.22;5049027;28;20397;-84
2022/06/14 07:42:15;;;;;;;5.25;1.05;;;;;;;13.95;100.00;101583.34;5047584;28;20053;-83
2022/06/14 07:44:55;;;;;;;9.75;2.90;;;;;;;13.97;100.00;101603.03;5047546;28;20064;-86
2022/06/14 07:47:32;;;;;;;3.40;1.00;;;;;;;14.00;100.00;101604.41;5023472;28;20097;-84
2022/06/14 07:50:11;;;;;;;3.90;1.35;;;;;;;14.19;100.00;101599.91;5035639;28;20057;-86
2022/06/14 07:52:49;;;;;;;3.22;1.00;;;;;;;14.62;100.00;101604.88;5033328;28;20056;-85
2022/06/14 07:55:26;;;;;;;3.97;1.05;;;;;;;14.58;100.00;101606.53;5061462;28;20115;-85
2022/06/14 07:58:02;;;;;;;4.65;1.10;;;;;;;14.45;100.00;101602.53;5028383;28;20061;-87
2022/06/14 08:03:32;;;;;;;3.65;0.88;;;;;;;14.23;100.00;101613.88;5035423;28;20064;-85
2022/06/14 08:06:04;;;;;;;7.05;1.52;;;;;;;14.00;100.00;101613.41;5026187;28;21105;-85
2022/06/14 08:08:41;;;;;;;6.32;1.30;;;;;;;13.88;100.00;101593.75;5063519;28;20064;-84
2022/06/14 08:11:21;;;;;;;2.97;1.00;;;;;;;14.38;100.00;101607.50;5035167;28;20049;-85
2022/06/14 08:13:59;;;;;;;3.33;1.17;;;;;;;14.50;100.00;101605.25;5034543;28;20056;-86
2022/06/14 08:16:34;;;;;;;5.13;1.30;;;;;;;13.97;100.00;101608.50;5027471;28;20068;-83
2022/06/14 08:19:10;;;;;;;3.72;1.10;;;;;;;13.86;100.00;101615.94;5027355;28;20064;-83
2022/06/14 08:21:43;;;;;;;3.15;0.98;;;;;;;13.63;100.00;101606.44;5028696;28;20068;-86
2022/06/14 08:24:20;;;;;;;5.00;1.08;;;;;;;13.84;100.00;101614.59;5030258;28;20032;-85
2022/06/14 08:27:01;;;;;;;;;;;;;;;13.92;100.00;101616.72;5036427;28;20057;-84
2022/06/14 08:29:40;;;;;;;3.17;1.13;;;;;;;13.93;100.00;101615.63;5030574;28;19935;-85
2022/06/14 08:32:18;;;;;;;4.82;1.00;;;;;;;14.24;100.00;101621.81;5027536;28;20068;-84
2022/06/14 08:34:58;;;;;;;5.65;1.20;;;;;;;14.53;100.00;101612.03;5031363;28;20060;-86
2022/06/14 08:37:46;;;;;;;3.10;1.17;;;;;;;14.98;100.00;101612.84;5030034;28;20064;-84
2022/06/14 08:40:33;;;;;;;3.42;0.98;;;;;;;15.04;100.00;101608.13;5037165;28;20052;-86
2022/06/14 08:43:05;;;;;;;2.53;0.90;;;;;;;15.00;100.00;101609.81;5029849;28;21021;-83
2022/06/14 08:45:39;;;;;;;2.88;1.13;;;;;;;15.01;100.00;101612.31;5065129;28;20617;-84
2022/06/14 08:48:35;;;;;;;2.42;1.23;;;;;;;14.84;100.00;101612.69;5013220;28;20489;-81
2022/06/14 08:51:13;;;;;;;6.15;1.77;;;;;;;15.39;100.00;101612.47;5023281;28;20057;-81
2022/06/14 08:54:13;;;;;;;4.43;1.20;;;;;;;15.58;100.00;101607.06;5019291;28;20060;-84
2022/06/14 08:57:02;;;;;;;5.03;0.90;;;;;;;15.28;100.00;101610.94;5022884;28;20053;-81
2022/06/14 09:00:00;;;;;;;3.00;1.00;;;;;;;14.86;100.00;101607.75;5022349;28;20060;-82
2022/06/14 09:03:15;;;;;;;0.88;0.70;;;;;;;14.62;100.00;101613.97;5023485;28;20052;-82
2022/06/14 09:06:02;;;;;;;7.40;1.27;;;;;;;14.60;100.00;101618.84;5031364;28;20056;-85
2022/06/14 09:09:12;;;;;;;3.83;1.02;;;;;;;14.74;100.00;101618.25;5028349;28;21478;-84
2022/06/14 09:12:18;;;;;;;3.88;0.98;;;;;;;14.85;100.00;101616.25;5029901;28;20065;-85
2022/06/14 09:15:11;;;;;;;3.00;1.17;;;;;;;15.16;100.00;101622.28;5032026;28;20061;-85
2022/06/14 09:18:12;;;;;;;2.97;1.00;;;;;;;15.09;100.00;101617.16;5035466;28;20060;-82
2022/06/14 09:20:57;;;;;;;5.55;1.10;;;;;;;14.94;100.00;101617.25;5030263;28;20064;-85
2022/06/14 09:23:45;;;;;;;2.67;0.90;;;;;;;14.91;100.00;101618.66;5027309;28;20052;-86
2022/06/14 09:26:38;;;;;;;5.70;1.17;;;;;;;14.46;100.00;101599.50;5026972;28;20040;-83
2022/06/14 09:30:08;;;;;;;10.45;1.25;;;;;;;14.51;100.00;101626.03;5031521;28;20057;-85
2022/06/14 09:33:14;;;;;;;3.55;0.98;;;;;;;14.38;100.00;101616.53;5008123;28;20061;-84
2022/06/14 09:36:23;;;;;;;3.35;1.17;;;;;;;14.53;100.00;101621.09;5031058;28;20057;-86
2022/06/14 09:39:38;;;;;;;2.95;0.80;;;;;;;14.50;100.00;101613.47;4966575;28;20058;-84
2022/06/14 09:42:37;;;;;;;5.90;1.17;;;;;;;14.67;100.00;101617.75;5028354;28;20063;-82
2022/06/14 09:45:24;;;;;;;4.15;1.02;;;;;;;14.38;100.00;101577.38;5023195;28;20091;-84
2022/06/14 09:48:31;;;;;;;1.75;0.90;;;;;;;14.77;100.00;101634.94;5040753;28;20060;-85
2022/06/14 09:51:38;;;;;;;8.18;1.45;;;;;;;15.03;100.00;101621.03;5024081;28;20049;-85
2022/06/14 09:54:47;;;;;;;3.70;1.10;;;;;;;15.14;100.00;101619.84;5026645;28;20057;-87
2022/06/14 09:57:40;;;;;;;6.07;1.30;;;;;;;15.32;100.00;101624.91;5026728;28;20057;-84
2022/06/14 10:00:28;;;;;;;3.30;1.10;;;;;;;15.29;100.00;101613.41;5016621;28;20053;-81
2022/06/14 10:03:35;;;;;;;4.85;1.38;;;;;;;15.46;100.00;101626.66;5034945;28;20041;-84
2022/06/14 10:06:34;;;;;;;3.08;0.88;;;;;;;15.76;100.00;101624.72;5030553;28;20052;-82
2022/06/14 10:09:29;;;;;;;3.30;0.95;;;;;;;15.81;100.00;101616.47;5010317;28;20664;-83
2022/06/14 10:12:19;;;;;;;2.78;0.88;;;;;;;15.95;100.00;101612.97;5024708;28;20053;-85
2022/06/14 10:15:00;;;;;;;5.03;1.38;;;;;;;16.10;100.00;101625.72;5025480;28;20060;-83
2022/06/14 10:17:56;;;;;;;3.75;1.13;;;;;;;16.18;100.00;101616.00;5021240;28;20048;-86
2022/06/14 10:20:52;;;;;;;5.83;1.13;;;;;;;16.19;100.00;101617.66;5022761;28;20056;-84
2022/06/14 10:23:52;;;;;;;15.40;1.48;;;;;;;16.21;100.00;101620.91;5029289;28;20068;-85
2022/06/14 10:30:00;;;;;;;3.60;1.40;;;;;;;15.83;100.00;101618.91;5028996;28;20072;-85
2022/06/14 10:32:49;;;;;;;3.83;1.23;;;;;;;15.67;100.00;101620.97;5030450;28;20048;-86
2022/06/14 10:35:32;;;;;;;5.88;1.13;;;;;;;15.60;100.00;101620.50;5027329;28;20048;-86
2022/06/14 10:38:52;;;;;;;4.60;1.30;;;;;;;15.54;100.00;101621.69;5028468;28;20064;-86
2022/06/14 10:41:28;;;;;;;3.55;1.20;;;;;;;15.66;100.00;101624.84;5032697;28;20068;-86
2022/06/14 10:44:12;;;;;;;2.25;0.85;;;;;;;15.64;100.00;101624.28;5025762;28;20053;-83
2022/06/14 10:47:15;;;;;;;13.65;4.20;;;;;;;15.79;100.00;101626.06;5032131;28;20045;-87
2022/06/14 10:50:19;;;;;;;6.15;2.28;;;;;;;16.00;100.00;101625.84;5036204;28;20124;-85
2022/06/14 10:52:58;;;;;;;2.22;0.82;;;;;;;16.25;100.00;101620.00;5063879;28;20057;-87
2022/06/14 10:55:55;;;;;;;1.52;0.80;;;;;;;16.25;100.00;101620.00;5031062;28;20060;-87
2022/06/14 10:59:31;;;;;;;3.92;1.02;;;;;;;16.47;100.00;101615.88;5029913;28;20049;-86
2022/06/14 11:02:18;;;;;;;3.55;0.90;;;;;;;16.61;100.00;101616.78;4870711;29;20057;-87
2022/06/14 11:04:56;;;;;;;;;;;;;;;16.69;100.00;101607.03;4927164;28;20249;-85
2022/06/14 11:07:42;;;;;;;3.60;1.00;;;;;;;16.91;100.00;101600.94;5017843;28;19925;-87
2022/06/14 11:10:48;;;;;;;3.03;0.80;;;;;;;16.63;99.68;101605.50;5031679;28;20053;-83
2022/06/14 11:13:30;;;;;;;4.77;1.20;;;;;;;16.58;100.00;101586.31;5005196;28;20057;-84
2022/06/14 11:16:09;;;;;;;3.15;1.02;;;;;;;16.67;97.15;101599.09;5033667;28;20056;-87
2022/06/14 11:19:10;;;;;;;4.13;1.13;;;;;;;16.82;100.00;101599.94;5035863;28;20056;-88
2022/06/14 11:22:00;;;;;;;3.92;0.93;;;;;;;17.13;100.00;101603.03;5069142;28;20064;-86
2022/06/14 11:24:40;;;;;;;2.30;0.90;;;;;;;17.28;100.00;101601.16;5033650;28;20041;-87
2022/06/14 11:27:23;;;;;;;4.22;0.80;;;;;;;17.57;100.00;101600.88;5059694;28;20053;-86
2022/06/14 11:30:08;;;;;;;3.10;0.93;;;;;;;17.41;100.00;101600.31;5028369;28;21001;-84
2022/06/14 11:32:47;;;;;;;2.67;0.90;;;;;;;17.90;100.00;101588.91;5030659;28;21340;-87
2022/06/14 11:35:36;;;;;;;2.88;0.80;;;;;;;18.40;98.69;101588.97;5027714;28;20445;-81
2022/06/14 11:38:25;;;;;;;3.53;0.80;;;;;;;18.28;80.33;101585.94;5027156;28;20049;-87
2022/06/14 11:41:01;;;;;;;3.95;1.00;;;;;;;17.80;89.69;101567.91;5027008;28;20053;-86
2022/06/14 11:43:50;;;;;;;8.48;1.83;;;;;;;18.82;98.75;101588.78;5028116;28;20053;-87
2022/06/14 11:46:34;;;;;;;2.92;0.98;;;;;;;18.51;84.25;101582.09;5020815;28;20057;-86
2022/06/14 11:49:13;;;;;;;4.40;0.88;;;;;;;18.51;85.38;101582.09;4984083;28;20045;-87
2022/06/14 11:51:58;;;;;;;3.78;1.02;;;;;;;18.61;89.27;101585.72;5018952;28;21326;-84
2022/06/14 11:54:48;;;;;;;2.30;0.70;;;;;;;18.56;92.22;101586.69;5028134;28;20056;-83
2022/06/14 11:57:25;;;;;;;2.35;0.80;;;;;;;18.35;86.98;101584.41;5034922;28;20060;-87
2022/06/14 12:00:25;;;;;;;4.43;1.10;;;;;;;17.71;83.99;101594.56;5029775;28;20519;-84
2022/06/14 12:03:07;;;;;;;2.35;0.73;;;;;;;17.62;89.85;101597.19;5026777;28;20053;-86
2022/06/14 12:05:48;;;;;;;2.00;0.80;;;;;;;17.48;82.47;101583.41;5032754;28;20049;-86
2022/06/14 12:08:47;;;;;;;6.22;0.93;;;;;;;17.35;84.88;101598.81;5031209;28;20294;-85
2022/06/14 12:11:25;;;;;;;3.63;0.85;;;;;;;17.47;94.06;101603.81;5069406;28;20065;-86
2022/06/14 12:14:22;;;;;;;2.58;0.88;;;;;;;17.34;95.50;101594.41;5069326;28;20057;-85
2022/06/14 12:17:02;;;;;;;4.22;1.63;;;;;;;17.40;98.24;101601.47;5030404;28;20064;-86
2022/06/14 12:19:36;;;;;;;3.60;1.08;;;;;;;17.28;90.00;101598.41;5032364;28;20069;-86
2022/06/14 12:22:31;;;;;;;3.15;1.02;;;;;;;17.16;90.56;101596.13;5032106;28;20072;-85
2022/06/14 12:28:04;;;;;;;1.10;0.68;;;;;;;17.28;100.00;101601.16;5067813;28;20064;-87
2022/06/14 12:30:34;;;;;;;2.47;0.70;;;;;;;17.16;92.18;101594.16;5070396;28;20148;-85
2022/06/14 12:33:17;;;;;;;2.55;0.80;;;;;;;17.26;88.52;101595.94;5031462;28;20053;-88
2022/06/14 12:36:02;;;;;;;3.10;0.75;;;;;;;17.37;91.90;101604.00;5035514;28;20056;-84
2022/06/14 12:38:36;;;;;;;1.77;0.77;;;;;;;17.44;89.00;101597.00;5032546;28;20079;-82
2022/06/14 12:41:17;;;;;;;2.40;0.80;;;;;;;17.65;94.75;101588.34;5035653;28;20044;-83
2022/06/14 12:43:58;;;;;;;3.13;0.68;;;;;;;17.64;88.40;101581.19;5031753;28;20053;-84